sensor_id;sensor_type;location;lat;lon;timestamp;P1;P2;P0
72918;PMS7003;68407;55.694;26.994;2023-08-24T00:01:01;1.2;0.2;0
72918;PMS7003;68407;55.694;26.994;2023-08-24T00:05:46;1.2;0.2;0
72918;PMS7003;68407;55.694;26.994;2023-08-24T00:10:52;1.2;0.2;0
72918;PMS7003;68407;55.694;26.994;2023-08-24T00:16:12;0.6;0.2;0.2
72918;PMS7003;68407;55.694;26.994;2023-08-24T00:20:34;1.2;0.4;0.2
72918;PMS7003;68407;55.694;26.994;2023-08-24T00:25:58;1.2;0.2;0.2
72918;PMS7003;68407;55.694;26.994;2023-08-24T00:31:06;0.4;0.2;0.2
72918;PMS7003;68407;55.694;26.994;2023-08-24T00:35:44;0.4;0;0
72918;PMS7003;68407;55.694;26.994;2023-08-24T00:41:12;0.8;0;0
72918;PMS7003;68407;55.694;26.994;2023-08-24T00:45:52;0.2;0.2;0
72918;PMS7003;68407;55.694;26.994;2023-08-24T00:50:37;0.6;0.6;0.4
72918;PMS7003;68407;55.694;26.994;2023-08-24T00:55:34;1;0.8;0.5
72918;PMS7003;68407;55.694;26.994;2023-08-24T01:01:12;0.8;0;0
72918;PMS7003;68407;55.694;26.994;2023-08-24T01:06:04;0;0;0
72918;PMS7003;68407;55.694;26.994;2023-08-24T01:11:02;0;0;0
72918;PMS7003;68407;55.694;26.994;2023-08-24T01:16:13;2;0.4;0
72918;PMS7003;68407;55.694;26.994;2023-08-24T01:21:04;0.6;0;0
72918;PMS7003;68407;55.694;26.994;2023-08-24T01:25:46;1.2;0.2;0
72918;PMS7003;68407;55.694;26.994;2023-08-24T01:31:04;0.2;0;0
72918;PMS7003;68407;55.694;26.994;2023-08-24T01:36:12;0.2;0;0
72918;PMS7003;68407;55.694;26.994;2023-08-24T01:40:48;1;0.2;0
72918;PMS7003;68407;55.694;26.994;2023-08-24T01:46:06;0.6;0.2;0.2
72918;PMS7003;68407;55.694;26.994;2023-08-24T01:51:12;0.6;0.2;0.2
72918;PMS7003;68407;55.694;26.994;2023-08-24T01:55:34;0.3;0.3;0.3
72918;PMS7003;68407;55.694;26.994;2023-08-24T02:00:44;0.2;0.2;0
72918;PMS7003;68407;55.694;26.994;2023-08-24T02:05:40;1.6;0.8;0.2
72918;PMS7003;68407;55.694;26.994;2023-08-24T02:10:56;1;0.6;0.4
72918;PMS7003;68407;55.694;26.994;2023-08-24T02:16:03;0.2;0.2;0
72918;PMS7003;68407;55.694;26.994;2023-08-24T02:21:07;0.6;0;0
72918;PMS7003;68407;55.694;26.994;2023-08-24T02:25:52;0.6;0.6;0
72918;PMS7003;68407;55.694;26.994;2023-08-24T02:30:59;1.6;0.4;0.4
72918;PMS7003;68407;55.694;26.994;2023-08-24T02:35:34;1;0.6;0.2
72918;PMS7003;68407;55.694;26.994;2023-08-24T02:41:12;1;0.4;0
72918;PMS7003;68407;55.694;26.994;2023-08-24T02:45:34;0.2;0.2;0.2
72918;PMS7003;68407;55.694;26.994;2023-08-24T02:50:56;1;0.4;0.2
72918;PMS7003;68407;55.694;26.994;2023-08-24T02:56:10;0.8;0.6;0.4
72918;PMS7003;68407;55.694;26.994;2023-08-24T03:00:37;1.3;0.8;0.3
72918;PMS7003;68407;55.694;26.994;2023-08-24T03:05:53;1.2;0.6;0.2
72918;PMS7003;68407;55.694;26.994;2023-08-24T03:11:12;1.8;0.6;0.4
72918;PMS7003;68407;55.694;26.994;2023-08-24T03:15:48;1.2;0.8;0.6
72918;PMS7003;68407;55.694;26.994;2023-08-24T03:20:36;1.8;0.8;0.6
72918;PMS7003;68407;55.694;26.994;2023-08-24T03:26:00;1.2;0.8;0.2
72918;PMS7003;68407;55.694;26.994;2023-08-24T03:31:12;1.2;0.6;0.4
72918;PMS7003;68407;55.694;26.994;2023-08-24T03:35:58;0.8;0;0
72918;PMS7003;68407;55.694;26.994;2023-08-24T03:40:38;1.2;0.8;0.4
72918;PMS7003;68407;55.694;26.994;2023-08-24T03:46:12;0.8;0.6;0.2
72918;PMS7003;68407;55.694;26.994;2023-08-24T03:51:04;0.8;0.4;0.2
72918;PMS7003;68407;55.694;26.994;2023-08-24T03:55:34;0.8;0.2;0
72918;PMS7003;68407;55.694;26.994;2023-08-24T04:00:52;2.3;0.5;0
72918;PMS7003;68407;55.694;26.994;2023-08-24T04:06:00;0.2;0;0
72918;PMS7003;68407;55.694;26.994;2023-08-24T04:11:04;0.4;0.2;0
72918;PMS7003;68407;55.694;26.994;2023-08-24T04:15:48;1.2;0.2;0
72918;PMS7003;68407;55.694;26.994;2023-08-24T04:21:10;1;0.4;0.2
72918;PMS7003;68407;55.694;26.994;2023-08-24T04:25:38;0.6;0;0
72918;PMS7003;68407;55.694;26.994;2023-08-24T04:30:48;1;0.6;0.4
72918;PMS7003;68407;55.694;26.994;2023-08-24T04:35:34;1.2;0.8;0.4
72918;PMS7003;68407;55.694;26.994;2023-08-24T04:41:12;1.2;0.8;0.6
72918;PMS7003;68407;55.694;26.994;2023-08-24T04:45:38;0.2;0;0
72918;PMS7003;68407;55.694;26.994;2023-08-24T04:50:48;1.2;0.6;0
72918;PMS7003;68407;55.694;26.994;2023-08-24T04:55:50;1.2;0.8;0.6
72918;PMS7003;68407;55.694;26.994;2023-08-24T05:00:36;0.8;0.5;0.5
72918;PMS7003;68407;55.694;26.994;2023-08-24T05:06:12;1.2;1;0.8
72918;PMS7003;68407;55.694;26.994;2023-08-24T05:10:52;1;0.8;0.6
72918;PMS7003;68407;55.694;26.994;2023-08-24T05:15:52;0.8;0.6;0.6
72918;PMS7003;68407;55.694;26.994;2023-08-24T05:20:34;1.8;1.4;1
72918;PMS7003;68407;55.694;26.994;2023-08-24T05:26:12;2;1;0.4
72918;PMS7003;68407;55.694;26.994;2023-08-24T05:31:04;1.4;1;0.8
72918;PMS7003;68407;55.694;26.994;2023-08-24T05:36:12;2.4;1.8;1.2
72918;PMS7003;68407;55.694;26.994;2023-08-24T05:41:12;1.4;1.2;1
72918;PMS7003;68407;55.694;26.994;2023-08-24T05:46:00;3.8;2.2;1.4
72918;PMS7003;68407;55.694;26.994;2023-08-24T05:50:44;1.2;1;0.6
72918;PMS7003;68407;55.694;26.994;2023-08-24T05:55:57;1.8;1.2;1.2
72918;PMS7003;68407;55.694;26.994;2023-08-24T06:01:12;2.5;2;1
72918;PMS7003;68407;55.694;26.994;2023-08-24T06:06:00;1.4;1;0.8
72918;PMS7003;68407;55.694;26.994;2023-08-24T06:10:42;1.4;0.8;0.6
72918;PMS7003;68407;55.694;26.994;2023-08-24T06:16:12;2;1.2;1.2
72918;PMS7003;68407;55.694;26.994;2023-08-24T06:20:34;2;1;1
72918;PMS7003;68407;55.694;26.994;2023-08-24T06:25:35;2.4;1.6;0.8
72918;PMS7003;68407;55.694;26.994;2023-08-24T06:30:48;1.4;1.2;0.6
72918;PMS7003;68407;55.694;26.994;2023-08-24T06:35:56;2.2;1.8;0.6
72918;PMS7003;68407;55.694;26.994;2023-08-24T06:40:57;2.6;1.4;1
72918;PMS7003;68407;55.694;26.994;2023-08-24T06:46:04;2;0.8;0.6
72918;PMS7003;68407;55.694;26.994;2023-08-24T06:50:50;1.4;0.8;0.2
72918;PMS7003;68407;55.694;26.994;2023-08-24T06:55:46;0.8;0.6;0.4
72918;PMS7003;68407;55.694;26.994;2023-08-24T07:00:44;2;1.5;1
72918;PMS7003;68407;55.694;26.994;2023-08-24T07:05:48;1.4;1.2;0.8
72918;PMS7003;68407;55.694;26.994;2023-08-24T07:11:00;0.6;0.6;0.6
72918;PMS7003;68407;55.694;26.994;2023-08-24T07:15:56;2;1;0.8
72918;PMS7003;68407;55.694;26.994;2023-08-24T07:21:12;1.4;1;1
72918;PMS7003;68407;55.694;26.994;2023-08-24T07:25:50;0.6;0.4;0.4
72918;PMS7003;68407;55.694;26.994;2023-08-24T07:30:35;1;0.6;0.6
72918;PMS7003;68407;55.694;26.994;2023-08-24T07:35:46;1.4;1;0.8
72918;PMS7003;68407;55.694;26.994;2023-08-24T07:40:34;1.2;1.2;1
72918;PMS7003;68407;55.694;26.994;2023-08-24T07:45:54;3;0.8;0.8
72918;PMS7003;68407;55.694;26.994;2023-08-24T07:51:00;2.8;1.8;1.6
72918;PMS7003;68407;55.694;26.994;2023-08-24T07:56:12;2.4;2.2;2
72918;PMS7003;68407;55.694;26.994;2023-08-24T08:00:56;3;2.2;1.8
72918;PMS7003;68407;55.694;26.994;2023-08-24T08:05:34;2.5;2;1.5
72918;PMS7003;68407;55.694;26.994;2023-08-24T08:10:44;3.3;1.5;1.5
72918;PMS7003;68407;55.694;26.994;2023-08-24T08:15:38;3.2;1.4;1
72918;PMS7003;68407;55.694;26.994;2023-08-24T08:21:08;1.8;1;1
72918;PMS7003;68407;55.694;26.994;2023-08-24T08:26:12;1.2;1;0.8
72918;PMS7003;68407;55.694;26.994;2023-08-24T08:30:54;1.2;0.8;0.6
72918;PMS7003;68407;55.694;26.994;2023-08-24T08:35:44;2.4;1.4;1
72918;PMS7003;68407;55.694;26.994;2023-08-24T08:41:12;1.4;1;1
72918;PMS7003;68407;55.694;26.994;2023-08-24T08:45:38;3.4;2.4;1.6
72918;PMS7003;68407;55.694;26.994;2023-08-24T08:51:10;3;2.2;1.6
72918;PMS7003;68407;55.694;26.994;2023-08-24T08:55:56;2.2;1.8;1.2
72918;PMS7003;68407;55.694;26.994;2023-08-24T09:00:56;2.4;1.2;0.8
72918;PMS7003;68407;55.694;26.994;2023-08-24T09:05:56;3;1.8;1.3
72918;PMS7003;68407;55.694;26.994;2023-08-24T09:11:04;3;2;1.6
72918;PMS7003;68407;55.694;26.994;2023-08-24T09:15:34;3.4;2.2;1.8
72918;PMS7003;68407;55.694;26.994;2023-08-24T09:20:42;1.8;1.2;0.6
72918;PMS7003;68407;55.694;26.994;2023-08-24T09:25:44;3.2;2.8;2
72918;PMS7003;68407;55.694;26.994;2023-08-24T09:30:44;2;1.8;1.6
72918;PMS7003;68407;55.694;26.994;2023-08-24T09:35:38;4.8;3.6;2.8
72918;PMS7003;68407;55.694;26.994;2023-08-24T09:41:08;3.4;2.6;2.2
72918;PMS7003;68407;55.694;26.994;2023-08-24T09:46:12;2.8;2.8;2.2
72918;PMS7003;68407;55.694;26.994;2023-08-24T09:50:52;2.4;2.2;1.6
72918;PMS7003;68407;55.694;26.994;2023-08-24T09:55:34;3.6;2.8;2.4
72918;PMS7003;68407;55.694;26.994;2023-08-24T10:00:56;3.2;2.4;1.6
72918;PMS7003;68407;55.694;26.994;2023-08-24T10:05:38;1.3;0.3;0
72918;PMS7003;68407;55.694;26.994;2023-08-24T10:10:44;1.4;1;0.4
72918;PMS7003;68407;55.694;26.994;2023-08-24T10:16:00;1.2;0.4;0.4
72918;PMS7003;68407;55.694;26.994;2023-08-24T10:21:12;1.2;0.4;0.4
72918;PMS7003;68407;55.694;26.994;2023-08-24T10:25:38;1.4;1;1
72918;PMS7003;68407;55.694;26.994;2023-08-24T10:31:00;0.4;0.2;0
72918;PMS7003;68407;55.694;26.994;2023-08-24T10:36:12;0.6;0.4;0.2
72918;PMS7003;68407;55.694;26.994;2023-08-24T10:40:49;0.6;0.4;0.4
72918;PMS7003;68407;55.694;26.994;2023-08-24T10:45:56;0;0;0
72918;PMS7003;68407;55.694;26.994;2023-08-24T10:51:21;1;0.6;0.4
72918;PMS7003;68407;55.694;26.994;2023-08-24T10:55:36;1;0.4;0.2
72918;PMS7003;68407;55.694;26.994;2023-08-24T11:00:44;1;0.4;0.2
72918;PMS7003;68407;55.694;26.994;2023-08-24T11:05:56;2.3;1;0.8
72918;PMS7003;68407;55.694;26.994;2023-08-24T11:11:18;0.8;0.2;0
72918;PMS7003;68407;55.694;26.994;2023-08-24T11:15:50;1.2;0.8;0.8
72918;PMS7003;68407;55.694;26.994;2023-08-24T11:20:34;1;0.4;0.2
72918;PMS7003;68407;55.694;26.994;2023-08-24T11:25:48;0.6;0.4;0
72918;PMS7003;68407;55.694;26.994;2023-08-24T11:31:12;0.8;0.6;0.2
72918;PMS7003;68407;55.694;26.994;2023-08-24T11:35:35;0.8;0.8;0.8
72918;PMS7003;68407;55.694;26.994;2023-08-24T11:41:12;1.2;0.4;0.4
72918;PMS7003;68407;55.694;26.994;2023-08-24T11:46:04;1;0.2;0.2
72918;PMS7003;68407;55.694;26.994;2023-08-24T11:51:00;0.4;0.2;0.2
72918;PMS7003;68407;55.694;26.994;2023-08-24T11:56:12;0;0;0
72918;PMS7003;68407;55.694;26.994;2023-08-24T12:00:52;1;0.8;0.8
72918;PMS7003;68407;55.694;26.994;2023-08-24T12:05:48;1;0.8;0.8
72918;PMS7003;68407;55.694;26.994;2023-08-24T12:10:46;0.8;0.8;0.6
72918;PMS7003;68407;55.694;26.994;2023-08-24T12:16:12;1;0.8;0.8
72918;PMS7003;68407;55.694;26.994;2023-08-24T12:21:04;1.2;1.2;1
72918;PMS7003;68407;55.694;26.994;2023-08-24T12:26:06;1.2;1.2;1
72918;PMS7003;68407;55.694;26.994;2023-08-24T12:31:13;1.4;1;1
72918;PMS7003;68407;55.694;26.994;2023-08-24T12:36:04;2.4;1.8;1.4
72918;PMS7003;68407;55.694;26.994;2023-08-24T12:40:34;2.8;2.2;1.8
72918;PMS7003;68407;55.694;26.994;2023-08-24T12:45:34;3;2.8;2.6
72918;PMS7003;68407;55.694;26.994;2023-08-24T12:51:12;1.4;1.4;1.2
72918;PMS7003;68407;55.694;26.994;2023-08-24T12:56:12;1.6;1.4;1.2
72918;PMS7003;68407;55.694;26.994;2023-08-24T13:01:00;1.2;0.6;0.6
72918;PMS7003;68407;55.694;26.994;2023-08-24T13:06:12;2;1.3;0.8
72918;PMS7003;68407;55.694;26.994;2023-08-24T13:11:04;1.6;1;1
72918;PMS7003;68407;55.694;26.994;2023-08-24T13:15:44;1.4;1.2;0.8
72918;PMS7003;68407;55.694;26.994;2023-08-24T13:21:04;3;2;1.6
72918;PMS7003;68407;55.694;26.994;2023-08-24T13:26:16;1.8;1.6;1.2
72918;PMS7003;68407;55.694;26.994;2023-08-24T13:30:58;3.6;3.2;2.4
72918;PMS7003;68407;55.694;26.994;2023-08-24T13:35:42;2.4;1.6;1.6
72918;PMS7003;68407;55.694;26.994;2023-08-24T13:41:10;2.2;1.8;1.4
72918;PMS7003;68407;55.694;26.994;2023-08-24T13:46:00;2.2;1.8;1.4
72918;PMS7003;68407;55.694;26.994;2023-08-24T13:50:52;1.8;1.8;1.2
72918;PMS7003;68407;55.694;26.994;2023-08-24T13:55:54;1.8;1.6;1.2
72918;PMS7003;68407;55.694;26.994;2023-08-24T14:00:54;2.4;2;1.6
72918;PMS7003;68407;55.694;26.994;2023-08-24T14:05:38;2.6;1.8;1.6
72918;PMS7003;68407;55.694;26.994;2023-08-24T14:11:02;3.5;2.5;2.3
72918;PMS7003;68407;55.694;26.994;2023-08-24T14:15:50;3.4;2.8;2.2
72918;PMS7003;68407;55.694;26.994;2023-08-24T14:21:08;2.4;2.2;2.2
72918;PMS7003;68407;55.694;26.994;2023-08-24T14:25:36;2.2;2.2;2
72918;PMS7003;68407;55.694;26.994;2023-08-24T14:30:44;2.4;1.8;1.6
72918;PMS7003;68407;55.694;26.994;2023-08-24T14:35:50;2.6;2;1.4
72918;PMS7003;68407;55.694;26.994;2023-08-24T14:40:56;3.4;2.8;2.6
72918;PMS7003;68407;55.694;26.994;2023-08-24T14:46:12;3;1.8;1.4
72918;PMS7003;68407;55.694;26.994;2023-08-24T14:50:48;3.8;3;2.4
72918;PMS7003;68407;55.694;26.994;2023-08-24T14:55:38;3.2;2.4;2
72918;PMS7003;68407;55.694;26.994;2023-08-24T15:00:56;2.4;2;1.8
72918;PMS7003;68407;55.694;26.994;2023-08-24T15:05:40;2;2;1.8
72918;PMS7003;68407;55.694;26.994;2023-08-24T15:10:34;1.8;1.8;1.3
72918;PMS7003;68407;55.694;26.994;2023-08-24T15:16:00;3.2;2.2;2
72918;PMS7003;68407;55.694;26.994;2023-08-24T15:21:06;2.6;1.8;1.2
72918;PMS7003;68407;55.694;26.994;2023-08-24T15:25:42;2.2;1.6;1.4
72918;PMS7003;68407;55.694;26.994;2023-08-24T15:30:34;2.4;1.8;1.6
72918;PMS7003;68407;55.694;26.994;2023-08-24T15:36:12;2.4;1.4;1.2
72918;PMS7003;68407;55.694;26.994;2023-08-24T15:40:51;2;1;1
72918;PMS7003;68407;55.694;26.994;2023-08-24T15:45:38;1.4;1.4;0.8
72918;PMS7003;68407;55.694;26.994;2023-08-24T15:50:38;2.4;2;1.8
72918;PMS7003;68407;55.694;26.994;2023-08-24T15:55:36;1.4;0.8;0.6
72918;PMS7003;68407;55.694;26.994;2023-08-24T16:00:34;1.4;1.4;1
72918;PMS7003;68407;55.694;26.994;2023-08-24T16:05:34;2.2;1.8;1.4
72918;PMS7003;68407;55.694;26.994;2023-08-24T16:11:12;1.8;1.8;1.3
72918;PMS7003;68407;55.694;26.994;2023-08-24T16:16:00;2.8;2.2;1.8
72918;PMS7003;68407;55.694;26.994;2023-08-24T16:20:45;2;1.6;1
72918;PMS7003;68407;55.694;26.994;2023-08-24T16:25:52;4.4;4;3
72918;PMS7003;68407;55.694;26.994;2023-08-24T16:31:12;5.4;4.6;4.2
72918;PMS7003;68407;55.694;26.994;2023-08-24T16:35:34;3.8;3.4;3
72918;PMS7003;68407;55.694;26.994;2023-08-24T16:40:48;2.6;2.2;1.8
72918;PMS7003;68407;55.694;26.994;2023-08-24T16:46:04;3.2;2.6;2.2
72918;PMS7003;68407;55.694;26.994;2023-08-24T16:51:00;4;3.2;3
72918;PMS7003;68407;55.694;26.994;2023-08-24T16:56:12;4;4;3.6
72918;PMS7003;68407;55.694;26.994;2023-08-24T17:00:34;3.8;3.2;2.6
72918;PMS7003;68407;55.694;26.994;2023-08-24T17:05:40;4.2;3;2.4
72918;PMS7003;68407;55.694;26.994;2023-08-24T17:10:35;3;2.5;1.8
72918;PMS7003;68407;55.694;26.994;2023-08-24T17:16:12;6.6;5.6;4.4
72918;PMS7003;68407;55.694;26.994;2023-08-24T17:21:04;7.6;5.4;4
72918;PMS7003;68407;55.694;26.994;2023-08-24T17:26:12;7.4;6.2;5.4
72918;PMS7003;68407;55.694;26.994;2023-08-24T17:31:12;8;7;5.4
72918;PMS7003;68407;55.694;26.994;2023-08-24T17:36:04;4.4;3.8;2.6
72918;PMS7003;68407;55.694;26.994;2023-08-24T17:40:38;3;2.8;2
72918;PMS7003;68407;55.694;26.994;2023-08-24T17:45:44;3;2.8;2
72918;PMS7003;68407;55.694;26.994;2023-08-24T17:51:12;3;2.4;2.4
72918;PMS7003;68407;55.694;26.994;2023-08-24T17:56:12;5.2;4.6;3.4
72918;PMS7003;68407;55.694;26.994;2023-08-24T18:01:12;3.8;3.2;2.8
72918;PMS7003;68407;55.694;26.994;2023-08-24T18:05:46;2.6;2;1.6
72918;PMS7003;68407;55.694;26.994;2023-08-24T18:11:04;3;2.3;1.5
72918;PMS7003;68407;55.694;26.994;2023-08-24T18:15:38;2.8;2;1.6
72918;PMS7003;68407;55.694;26.994;2023-08-24T18:21:04;2.4;2;1.4
72918;PMS7003;68407;55.694;26.994;2023-08-24T18:26:12;2.4;2.2;1.4
72918;PMS7003;68407;55.694;26.994;2023-08-24T18:30:46;2.4;2.2;1.6
72918;PMS7003;68407;55.694;26.994;2023-08-24T18:35:44;2.2;2.2;1.8
72918;PMS7003;68407;55.694;26.994;2023-08-24T18:41:12;2.6;1.8;1.6
72918;PMS7003;68407;55.694;26.994;2023-08-24T18:45:38;3;2.6;1.8
72918;PMS7003;68407;55.694;26.994;2023-08-24T18:50:38;3;2.2;1.6
72918;PMS7003;68407;55.694;26.994;2023-08-24T18:55:38;2;1.6;1.2
72918;PMS7003;68407;55.694;26.994;2023-08-24T19:00:52;2.6;2.2;2
72918;PMS7003;68407;55.694;26.994;2023-08-24T19:05:58;2.6;1.4;1.2
72918;PMS7003;68407;55.694;26.994;2023-08-24T19:11:06;2.2;2;1.6
72918;PMS7003;68407;55.694;26.994;2023-08-24T19:15:57;2.5;1.5;1
72918;PMS7003;68407;55.694;26.994;2023-08-24T19:20:38;3;2.6;2
72918;PMS7003;68407;55.694;26.994;2023-08-24T19:25:58;2;1.8;1.2
72918;PMS7003;68407;55.694;26.994;2023-08-24T19:30:50;2.2;2;1.6
72918;PMS7003;68407;55.694;26.994;2023-08-24T19:35:46;2.2;1.4;1.2
72918;PMS7003;68407;55.694;26.994;2023-08-24T19:41:00;1.2;1.2;0.4
72918;PMS7003;68407;55.694;26.994;2023-08-24T19:46:14;1.8;0.8;0.4
72918;PMS7003;68407;55.694;26.994;2023-08-24T19:50:50;2.2;1.6;1
72918;PMS7003;68407;55.694;26.994;2023-08-24T19:56:02;2.8;2;1.4
72918;PMS7003;68407;55.694;26.994;2023-08-24T20:01:14;2.2;1.2;0.8
72918;PMS7003;68407;55.694;26.994;2023-08-24T20:05:52;1.4;1.2;1
72918;PMS7003;68407;55.694;26.994;2023-08-24T20:10:46;1.8;1.6;1.4
72918;PMS7003;68407;55.694;26.994;2023-08-24T20:15:40;2;1.8;1.5
72918;PMS7003;68407;55.694;26.994;2023-08-24T20:21:02;2;1.4;1.2
72918;PMS7003;68407;55.694;26.994;2023-08-24T20:25:56;1.8;1.4;1.2
72918;PMS7003;68407;55.694;26.994;2023-08-24T20:30:34;2.2;1.2;0.8
72918;PMS7003;68407;55.694;26.994;2023-08-24T20:36:14;1.4;1;0.8
72918;PMS7003;68407;55.694;26.994;2023-08-24T20:40:36;1.6;1;1
72918;PMS7003;68407;55.694;26.994;2023-08-24T20:45:47;0.8;0.8;0.8
72918;PMS7003;68407;55.694;26.994;2023-08-24T20:50:34;0.8;0.6;0.6
72918;PMS7003;68407;55.694;26.994;2023-08-24T20:56:14;2;0.8;0.8
72918;PMS7003;68407;55.694;26.994;2023-08-24T21:00:40;1.6;1.4;0.6
72918;PMS7003;68407;55.694;26.994;2023-08-24T21:06:06;1.6;1.2;1
72918;PMS7003;68407;55.694;26.994;2023-08-24T21:10:46;1.6;1.2;0.8
72918;PMS7003;68407;55.694;26.994;2023-08-24T21:16:03;1.5;1.3;0.8
72918;PMS7003;68407;55.694;26.994;2023-08-24T21:21:14;1.2;1;0.8
72918;PMS7003;68407;55.694;26.994;2023-08-24T21:26:02;1.4;0.8;0.8
72918;PMS7003;68407;55.694;26.994;2023-08-24T21:30:58;1.4;0.8;0.4
72918;PMS7003;68407;55.694;26.994;2023-08-24T21:35:40;1.8;1;0.6
72918;PMS7003;68407;55.694;26.994;2023-08-24T21:41:04;2.2;1.8;1.2
72918;PMS7003;68407;55.694;26.994;2023-08-24T21:45:57;1;0.6;0.2
72918;PMS7003;68407;55.694;26.994;2023-08-24T21:51:02;1.4;1.4;1
72918;PMS7003;68407;55.694;26.994;2023-08-24T21:56:14;1.4;1;0.8
72918;PMS7003;68407;55.694;26.994;2023-08-24T22:01:06;1.2;0.8;0.6
72918;PMS7003;68407;55.694;26.994;2023-08-24T22:05:48;1.4;1;1
72918;PMS7003;68407;55.694;26.994;2023-08-24T22:10:40;0.6;0.4;0.2
72918;PMS7003;68407;55.694;26.994;2023-08-24T22:16:14;1;0.5;0.3
72918;PMS7003;68407;55.694;26.994;2023-08-24T22:21:14;0.8;0.6;0.4
72918;PMS7003;68407;55.694;26.994;2023-08-24T22:26:14;1.2;0.6;0.6
72918;PMS7003;68407;55.694;26.994;2023-08-24T22:31:14;1.4;0.8;0.2
72918;PMS7003;68407;55.694;26.994;2023-08-24T22:36:14;1.4;0.4;0.2
72918;PMS7003;68407;55.694;26.994;2023-08-24T22:40:50;0.4;0.4;0.4
72918;PMS7003;68407;55.694;26.994;2023-08-24T22:46:06;0.4;0.4;0.2
72918;PMS7003;68407;55.694;26.994;2023-08-24T22:51:14;1;0.8;0.6
72918;PMS7003;68407;55.694;26.994;2023-08-24T22:55:56;1.6;0.8;0.4
72918;PMS7003;68407;55.694;26.994;2023-08-24T23:00:46;1.8;1;0.6
72918;PMS7003;68407;55.694;26.994;2023-08-24T23:06:15;1.4;1;0.6
72918;PMS7003;68407;55.694;26.994;2023-08-24T23:10:40;2;1.4;0.8
72918;PMS7003;68407;55.694;26.994;2023-08-24T23:15:40;1;0.8;0.5
72918;PMS7003;68407;55.694;26.994;2023-08-24T23:20:34;1.4;1;0.8
72918;PMS7003;68407;55.694;26.994;2023-08-24T23:26:00;0.8;0.6;0.6
72918;PMS7003;68407;55.694;26.994;2023-08-24T23:30:43;1.4;1;0.6
72918;PMS7003;68407;55.694;26.994;2023-08-24T23:36:06;2.4;1.2;0.8
72918;PMS7003;68407;55.694;26.994;2023-08-24T23:40:48;1.8;1;1
72918;PMS7003;68407;55.694;26.994;2023-08-24T23:45:34;1.4;1;0.6
72918;PMS7003;68407;55.694;26.994;2023-08-24T23:50:50;1.4;1.2;1
72918;PMS7003;68407;55.694;26.994;2023-08-24T23:55:36;1.6;1.2;1
